Alyeska Resort
Hourly Weather - Mid Mountian Site
ALY_MID_HR 4/27/2015
CLICK TO VIEW GRAPH!!

        DATE  TIME   Air   H2o   H2o   New  Snow  BATT   Rel
                    Temp  Inch Since  Snow Depth  Volt  Hum%
                      F   1HR  0600   1HR         AVG   AVG

   4/27/2015 17:00    45  0.00  0.00  -0.6 40.44 13.28    54
   4/27/2015 16:00    43  0.00  0.00  -0.5 40.44 13.29    60
   4/27/2015 15:00    43  0.00  0.00  -0.6 41.13 13.29    61
   4/27/2015 14:00    43  0.00  0.00  -0.6 41.15 13.30    65
   4/27/2015 13:00    44  0.00  0.00  -0.6 41.25 13.32    68
   4/27/2015 12:00    42  0.00  0.00  -0.6 41.58 13.34    73
   4/27/2015 11:00    40  0.00  0.00  -0.5 41.81 13.36    83
   4/27/2015 10:00    39  0.00  0.00  -0.4 41.99 13.36    84
   4/27/2015 09:00    38  0.00  0.00  -0.5 42.16 13.37    86
   4/27/2015 08:00    37  0.00  0.00  -0.5 42.26 13.37    85
   4/27/2015 07:00    36  0.00  0.00  -0.4 42.41 13.37    85
   4/27/2015 06:00    37  0.00  0.00  -0.4 42.26 13.37    82
   4/27/2015 05:00    37  0.00  0.00  -0.4 42.42 13.36    82
   4/27/2015 04:00    37  0.00  0.00  -0.4 42.38 13.36    82
   4/27/2015 03:00    37  0.00  0.00  -0.4 42.43 13.35    78
   4/27/2015 02:00    37  0.00  0.00  -0.4 42.50 13.34    76
   4/27/2015 01:00    39  0.00  0.00  -0.4 42.43 13.33    66
   4/26/2015 24:00    38  0.00  0.00  -0.4 42.51 13.32    69
   4/26/2015 23:00    38  0.00  0.00  -0.4 42.50 13.30    68
   4/26/2015 22:00    40  0.00  0.00  -0.4 42.48 13.28    63
   4/26/2015 21:00    41  0.00  0.00  -0.3 42.45 13.26    63
   4/26/2015 20:00    45  0.00  0.00  -0.5 41.92 13.24    54
   4/26/2015 19:00    47  0.00  0.00  -0.6 41.95 13.24    49
   4/26/2015 18:00    48  0.00  0.00  -0.5 41.68 13.24    41


CLICK TO VIEW GRAPH!!